MSC Ingrid — HOHA — position and weather

sailwx.info

Track history (hours):
 
Tides and Currents Weather Stations Pressure Air Temp Water Temp Dewpoint Dewpoint Depression Visibility Wind Speed Wind Dir Waves Ship Positions

MSC Ingrid

Last reported at 2015-Sep-03 18:17 UTC. Time now 2015-Sep-03 19:12 UTC.
Position N 17°50' W 061°26'.

Length 294 m; draft 13.5 m.

Type: Ship (hazmat cat A). MMSI: 354505000.

Date/timePositionNaut miles runAvg speedWind from/ knotsBaromVisibWave heightAir tempDewpointWater temp
2015-Sep-03 18:17N 17°50' W 061°26'1115.1
2015-Sep-03 17:33N 17°42' W 061°19'1515.2
2015-Sep-03 16:33N 17°30' W 061°08'1614.8
2015-Sep-03 15:30N 17°18' W 060°58'  
2015-Aug-27 09:18S 12°60' W 038°10'1317.3
2015-Aug-27 08:33S 13°04' W 038°22'1211.6
2015-Aug-27 07:33S 13°03' W 038°34'7 6.9
2015-Aug-27 06:33S 12°57' W 038°31'0 0.2
2015-Aug-27 05:31S 12°57' W 038°31'0 0.0
2015-Aug-27 04:31S 12°57' W 038°30'0 0.0
2015-Aug-27 03:31S 12°58' W 038°30'0 0.0
2015-Aug-27 02:31S 12°58' W 038°31'0 0.0
2015-Aug-27 01:31S 12°57' W 038°30'0 0.0
2015-Aug-27 00:31S 12°58' W 038°30'0 0.0
2015-Aug-26 23:31S 12°57' W 038°30'0 0.0
2015-Aug-26 22:25S 12°58' W 038°30'0 0.0
2015-Aug-26 21:31S 12°58' W 038°30'0 0.0
2015-Aug-26 20:31S 12°57' W 038°30'0 0.0
2015-Aug-26 19:31S 12°57' W 038°30'0 0.0
2015-Aug-26 18:31S 12°58' W 038°30'0 0.0
2015-Aug-26 17:31S 12°58' W 038°31'0 0.5
2015-Aug-26 16:33S 12°57' W 038°31'4 4.3
2015-Aug-26 15:33S 13°00' W 038°33'4 4.2
2015-Aug-26 14:31S 13°03' W 038°37'0 0.0
2015-Aug-26 13:31S 13°03' W 038°37'0 0.0
2015-Aug-26 12:31S 13°03' W 038°37'0 0.0
2015-Aug-26 11:31S 13°03' W 038°37'0 0.2
2015-Aug-26 10:31S 13°03' W 038°37'2 1.9
2015-Aug-26 09:34S 13°05' W 038°37'9 9.1
2015-Aug-26 08:33S 13°14' W 038°34'  
Track history (hours):
 
Tides and Currents Weather Stations Pressure Air Temp Water Temp Dewpoint Dewpoint Depression Visibility Wind Speed Wind Dir Waves Ship Positions

MSC Ingrid

Last reported at 2015-Sep-03 18:17 UTC. Time now 2015-Sep-03 19:12 UTC.
Position N 17°50' W 061°26'.

Length 294 m; draft 13.5 m.

Type: Ship (hazmat cat A). MMSI: 354505000.

Date/timePositionNaut miles runAvg speedWind from/ knotsBaromVisibWave heightAir tempDewpointWater temp
2015-Sep-03 18:17N 17°50' W 061°26'1115.1
2015-Sep-03 17:33N 17°42' W 061°19'1515.2
2015-Sep-03 16:33N 17°30' W 061°08'1614.8
2015-Sep-03 15:30N 17°18' W 060°58'  
2015-Aug-27 09:18S 12°60' W 038°10'1317.3
2015-Aug-27 08:33S 13°04' W 038°22'1211.6
2015-Aug-27 07:33S 13°03' W 038°34'7 6.9
2015-Aug-27 06:33S 12°57' W 038°31'0 0.2
2015-Aug-27 05:31S 12°57' W 038°31'0 0.0
2015-Aug-27 04:31S 12°57' W 038°30'0 0.0
2015-Aug-27 03:31S 12°58' W 038°30'0 0.0
2015-Aug-27 02:31S 12°58' W 038°31'0 0.0
2015-Aug-27 01:31S 12°57' W 038°30'0 0.0
2015-Aug-27 00:31S 12°58' W 038°30'0 0.0
2015-Aug-26 23:31S 12°57' W 038°30'0 0.0
2015-Aug-26 22:25S 12°58' W 038°30'0 0.0
2015-Aug-26 21:31S 12°58' W 038°30'0 0.0
2015-Aug-26 20:31S 12°57' W 038°30'0 0.0
2015-Aug-26 19:31S 12°57' W 038°30'0 0.0
2015-Aug-26 18:31S 12°58' W 038°30'0 0.0
2015-Aug-26 17:31S 12°58' W 038°31'0 0.5
2015-Aug-26 16:33S 12°57' W 038°31'4 4.3
2015-Aug-26 15:33S 13°00' W 038°33'4 4.2
2015-Aug-26 14:31S 13°03' W 038°37'0 0.0
2015-Aug-26 13:31S 13°03' W 038°37'0 0.0
2015-Aug-26 12:31S 13°03' W 038°37'0 0.0
2015-Aug-26 11:31S 13°03' W 038°37'0 0.2
2015-Aug-26 10:31S 13°03' W 038°37'2 1.9
2015-Aug-26 09:34S 13°05' W 038°37'9 9.1
2015-Aug-26 08:33S 13°14' W 038°34'  

Dump ship's entire track history